createdAt,value
2023-04-25T07:47:39.452Z,16.90
2023-04-25T07:50:09.276Z,17.10
2023-04-25T07:52:38.865Z,16.40
2023-04-25T07:55:07.938Z,16.30
2023-04-25T07:57:36.464Z,14.80
2023-04-25T08:00:06.040Z,13.80
2023-04-25T08:02:34.341Z,14.30
2023-04-25T08:05:02.864Z,14.90
2023-04-25T08:07:31.313Z,14.30
2023-04-25T08:10:00.904Z,15.80
2023-04-25T08:12:29.110Z,16.30
2023-04-25T08:14:57.406Z,15.30
2023-04-25T08:17:25.703Z,14.90
2023-04-25T08:19:54.165Z,15.20
2023-04-25T08:22:22.406Z,15.30
2023-04-25T08:24:50.652Z,15.20
2023-04-25T08:27:21.911Z,14.90
2023-04-25T08:29:50.411Z,14.90
2023-04-25T08:32:18.752Z,16.30
2023-04-25T08:34:48.207Z,16.40
2023-04-25T08:37:16.717Z,16.10
2023-04-25T08:39:46.158Z,15.80
2023-04-25T08:42:15.332Z,15.90
2023-04-25T08:44:45.561Z,16.20
2023-04-25T08:47:13.826Z,15.80
2023-04-25T08:49:45.189Z,14.10
2023-04-25T08:52:14.991Z,14.50
2023-04-25T08:54:45.836Z,15.10
2023-04-25T08:57:14.831Z,14.60
2023-04-25T08:59:46.921Z,14.20
2023-04-25T09:02:17.735Z,13.60
2023-04-25T09:04:46.848Z,14.30
2023-04-25T09:07:19.512Z,14.20
2023-04-25T09:09:47.810Z,14.30
2023-04-25T09:12:16.063Z,14.50
2023-04-25T09:15:02.856Z,14.40
2023-04-25T09:17:31.180Z,14.70
2023-04-25T09:20:10.102Z,14.80
2023-04-25T09:22:39.840Z,15.30
2023-04-25T09:25:12.413Z,14.90
2023-04-25T09:27:53.188Z,15.50
2023-04-25T09:30:32.059Z,15.90
2023-04-25T09:33:06.224Z,16.00
2023-04-25T09:35:39.625Z,15.70
2023-04-25T09:38:13.194Z,15.80
2023-04-25T09:40:46.338Z,15.20
2023-04-25T09:43:22.745Z,15.30
2023-04-25T09:45:56.737Z,15.40
2023-04-25T09:48:28.576Z,15.60
2023-04-25T09:51:08.548Z,15.90
2023-04-25T09:53:37.996Z,15.60
2023-04-25T09:56:08.443Z,15.80
2023-04-25T09:58:38.163Z,15.30
2023-04-25T10:01:09.756Z,14.20
2023-04-25T10:03:40.868Z,13.50
2023-04-25T10:06:11.487Z,14.30
2023-04-25T10:08:41.197Z,14.80
2023-04-25T10:11:10.900Z,14.70
2023-04-25T10:13:39.103Z,14.20
2023-04-25T10:16:08.779Z,15.10
2023-04-25T10:18:38.463Z,14.70
2023-04-25T10:21:08.101Z,15.40
2023-04-25T10:23:38.929Z,16.00
2023-04-25T10:26:08.590Z,15.60
2023-04-25T10:28:58.678Z,14.90
2023-04-25T10:31:28.874Z,15.40
2023-04-25T10:33:57.578Z,15.00
2023-04-25T10:36:28.228Z,13.20
2023-04-25T10:38:58.874Z,14.50
2023-04-25T10:41:27.174Z,14.80
2023-04-25T10:44:03.396Z,14.60
2023-04-25T10:46:37.082Z,16.00
2023-04-25T10:49:06.003Z,16.10
2023-04-25T10:54:27.078Z,16.30
2023-04-25T10:56:55.404Z,16.80
2023-04-25T10:59:27.692Z,16.60
2023-04-25T11:01:58.781Z,16.00
2023-04-25T11:07:15.773Z,15.60
2023-04-25T11:09:44.023Z,14.70
2023-04-25T12:24:54.318Z,15.90
2023-04-25T12:27:22.579Z,16.00
2023-04-25T12:29:55.616Z,16.40
2023-04-25T12:32:24.206Z,16.60
2023-04-25T12:34:52.485Z,16.70
2023-04-25T12:37:22.412Z,16.60
2023-04-25T12:39:50.635Z,16.00
2023-04-25T12:42:18.896Z,15.70
2023-04-25T12:44:47.542Z,15.80
2023-04-25T12:47:16.904Z,15.20
2023-04-25T12:49:47.024Z,15.50
2023-04-25T12:52:15.351Z,15.60
2023-04-25T12:54:44.955Z,15.50
2023-04-25T12:57:13.412Z,15.90
2023-04-25T12:59:41.657Z,15.90
2023-04-25T13:02:10.214Z,15.80
2023-04-25T13:04:38.545Z,15.00
2023-04-25T13:07:07.252Z,15.50
2023-04-25T13:09:35.530Z,15.30
2023-04-25T13:12:05.554Z,14.10
2023-04-25T13:14:33.809Z,13.90
2023-04-25T13:17:02.091Z,13.60
2023-04-25T13:19:30.345Z,12.30
2023-04-25T13:21:59.925Z,12.10
2023-04-25T13:24:28.416Z,12.80
2023-04-25T13:26:56.678Z,13.80
2023-04-25T13:29:26.263Z,13.10
2023-04-25T13:31:54.603Z,13.30
2023-04-25T13:34:22.851Z,12.80
2023-04-25T13:36:51.101Z,12.90
2023-04-25T13:39:19.378Z,13.40
2023-04-25T13:41:47.689Z,13.40
2023-04-25T13:44:16.148Z,13.60
2023-04-25T13:46:47.387Z,13.10
2023-04-25T13:49:16.600Z,13.60
2023-04-25T13:51:44.965Z,13.90
2023-04-25T13:54:13.281Z,14.40
2023-04-25T13:56:43.127Z,13.90
2023-04-25T13:59:11.800Z,13.30
2023-04-25T14:01:40.053Z,13.90
2023-04-25T14:04:10.687Z,14.70
2023-04-25T14:06:38.982Z,15.00
2023-04-25T14:09:08.206Z,14.80
2023-04-25T14:11:36.510Z,15.70
2023-04-25T14:14:05.077Z,15.70
2023-04-25T14:19:02.214Z,15.80
2023-04-25T14:21:33.770Z,14.30
2023-04-25T14:24:02.086Z,14.40
2023-04-25T14:26:31.142Z,14.60
2023-04-25T14:28:59.410Z,14.90
2023-04-25T14:31:27.903Z,15.20
2023-04-25T14:33:59.137Z,15.70
2023-04-25T14:36:28.458Z,15.40
2023-04-25T14:38:58.106Z,15.40
2023-04-25T14:41:27.262Z,14.60
2023-04-25T14:43:56.703Z,14.70
2023-04-25T14:46:25.351Z,14.80
2023-04-25T14:48:54.275Z,15.50
2023-04-25T14:51:22.747Z,15.50
2023-04-25T14:56:22.177Z,15.10
2023-04-25T14:58:50.863Z,13.20
2023-04-25T15:01:21.707Z,13.50
2023-04-25T15:03:50.721Z,14.00
2023-04-25T15:06:19.649Z,13.40
2023-04-25T15:08:47.866Z,12.40
2023-04-25T15:11:16.135Z,12.80
2023-04-25T15:13:45.807Z,12.90
2023-04-25T15:16:14.090Z,13.60
2023-04-25T15:18:42.802Z,13.50
2023-04-25T15:21:11.090Z,13.30
2023-04-25T15:23:39.397Z,13.70
2023-04-25T15:26:07.623Z,13.10
2023-04-25T15:28:35.962Z,13.20
2023-04-25T15:31:05.812Z,13.10
2023-04-25T15:33:34.103Z,13.10
2023-04-25T15:36:04.326Z,12.90
2023-04-25T15:38:32.792Z,12.90
2023-04-25T15:41:01.075Z,14.20
2023-04-25T15:43:29.683Z,14.20
2023-04-25T15:45:57.932Z,14.70
2023-04-25T15:48:27.642Z,14.70
2023-04-25T15:50:56.204Z,14.20
2023-04-25T15:53:24.517Z,13.80
2023-04-25T15:55:52.746Z,13.70
2023-04-25T15:58:20.993Z,14.50
2023-04-25T16:00:51.190Z,15.50
2023-04-25T16:03:19.609Z,15.10
2023-04-25T16:05:49.340Z,14.70
2023-04-25T16:08:18.003Z,14.90
2023-04-25T16:10:46.310Z,15.00
2023-04-25T16:13:14.555Z,13.20
2023-04-25T16:15:42.820Z,13.40
2023-04-25T16:18:11.127Z,12.70
2023-04-25T16:20:39.478Z,13.30
2023-04-25T16:23:09.911Z,13.70
2023-04-25T16:25:38.194Z,12.40
2023-04-25T16:28:06.420Z,13.70
2023-04-25T16:30:34.691Z,13.90
2023-04-25T16:33:03.003Z,14.90
2023-04-25T16:35:32.533Z,14.80
2023-04-25T16:38:01.023Z,14.40
2023-04-25T16:40:30.828Z,14.30
2023-04-25T16:42:59.117Z,13.40
2023-04-25T16:45:28.330Z,14.50
2023-04-25T16:47:56.718Z,13.90
2023-04-25T16:50:25.142Z,14.00
2023-04-25T16:52:54.565Z,14.30
2023-04-25T16:55:22.933Z,14.10
2023-04-25T16:57:52.489Z,13.80
2023-04-25T17:00:21.271Z,12.80
2023-04-25T17:02:49.694Z,13.90
2023-04-25T17:05:18.384Z,14.80
2023-04-25T17:07:46.611Z,14.80
2023-04-25T17:10:14.906Z,15.50
2023-04-25T17:12:43.134Z,15.50
2023-04-25T17:15:13.274Z,15.50
2023-04-25T17:17:41.572Z,15.30
2023-04-25T17:20:11.179Z,15.20
2023-04-25T17:22:39.420Z,15.40
2023-04-25T17:25:10.127Z,15.50
2023-04-25T17:27:38.599Z,14.80
2023-04-25T17:30:08.704Z,15.20
2023-04-25T17:32:38.351Z,15.10
2023-04-25T17:35:07.567Z,15.50
2023-04-25T17:37:36.030Z,15.50
2023-04-25T17:40:05.115Z,15.60
2023-04-25T17:42:33.744Z,15.80
2023-04-25T17:45:01.989Z,15.70
2023-04-25T17:47:30.251Z,14.90
2023-04-25T17:49:59.880Z,14.80
2023-04-25T17:52:29.185Z,14.20
2023-04-25T17:54:57.454Z,13.80
2023-04-25T17:57:26.440Z,13.10
2023-04-25T17:59:56.258Z,12.70
2023-04-25T18:02:24.880Z,12.80
2023-04-25T18:04:53.582Z,12.30
2023-04-25T18:07:23.567Z,13.40
2023-04-25T18:09:51.816Z,13.30
2023-04-25T18:12:21.070Z,13.60
2023-04-25T18:14:49.294Z,13.30
2023-04-25T18:17:17.534Z,13.90
2023-04-25T18:19:46.361Z,12.30
2023-04-25T18:22:14.604Z,12.20
2023-04-25T18:24:45.318Z,12.10
2023-04-25T18:27:13.592Z,12.30
2023-04-25T18:29:43.218Z,12.20
2023-04-25T18:32:11.743Z,12.90
2023-04-25T18:34:41.565Z,13.00
2023-04-25T18:37:09.818Z,13.70
2023-04-25T18:39:38.049Z,14.10
2023-04-25T18:42:08.471Z,14.50
2023-04-25T18:44:39.969Z,14.60
2023-04-25T18:47:08.831Z,14.50
2023-04-25T18:49:37.483Z,14.30
2023-04-25T18:52:08.542Z,14.60
2023-04-25T18:54:37.056Z,14.70
2023-04-25T18:57:07.096Z,14.90
2023-04-25T18:59:35.315Z,15.10
2023-04-25T19:02:05.461Z,15.20
2023-04-25T19:04:34.134Z,15.30
2023-04-25T19:07:04.064Z,15.20
2023-04-25T19:09:32.471Z,15.30
2023-04-25T19:12:00.768Z,15.40
2023-04-25T19:14:32.369Z,15.30
2023-04-25T19:17:01.037Z,15.10
2023-04-25T19:19:29.344Z,15.20
2023-04-25T19:21:58.786Z,15.20
2023-04-25T19:24:27.418Z,14.20
2023-04-25T19:26:55.712Z,14.00
2023-04-25T19:29:23.943Z,14.40
2023-04-25T19:31:54.372Z,14.30
2023-04-25T19:34:23.408Z,14.70
2023-04-25T19:36:54.075Z,14.90
2023-04-25T19:39:24.255Z,14.90
2023-04-25T19:41:52.607Z,14.90
2023-04-25T19:44:20.843Z,14.90
2023-04-25T19:46:49.838Z,15.10
2023-04-25T19:49:19.622Z,15.10
2023-04-25T19:51:47.876Z,15.10
2023-04-25T19:54:16.195Z,15.10
2023-04-25T19:56:44.761Z,15.10
2023-04-25T19:59:13.017Z,15.00
2023-04-25T20:01:41.394Z,15.00
2023-04-25T20:04:09.731Z,15.00
2023-04-25T20:06:39.343Z,14.60
2023-04-25T20:09:09.497Z,14.60
2023-04-25T20:11:37.778Z,14.70
2023-04-25T20:14:06.369Z,14.70
2023-04-25T20:16:34.686Z,14.60
2023-04-25T20:19:02.922Z,14.80
2023-04-25T20:21:33.225Z,14.80
2023-04-25T20:24:02.984Z,14.80
2023-04-25T20:26:33.943Z,14.70
2023-04-25T20:29:02.276Z,14.80
2023-04-25T20:31:34.405Z,14.80
2023-04-25T20:34:02.718Z,14.70
2023-04-25T20:36:32.132Z,14.80
2023-04-25T20:39:00.909Z,14.70
2023-04-25T20:41:31.549Z,14.70
2023-04-25T20:44:01.029Z,14.80
2023-04-25T20:46:30.146Z,14.70
2023-04-25T20:48:58.412Z,14.60
2023-04-25T20:51:27.605Z,14.70
2023-04-25T20:53:56.020Z,14.60
2023-04-25T20:56:24.430Z,14.60
2023-04-25T20:58:55.706Z,14.60
2023-04-25T21:01:24.195Z,14.60
2023-04-25T21:03:53.146Z,14.60
2023-04-25T21:06:21.571Z,14.60
2023-04-25T21:08:50.064Z,14.60
2023-04-25T21:11:19.527Z,14.80
2023-04-25T21:13:47.944Z,14.50
2023-04-25T21:16:17.717Z,14.50
2023-04-25T21:18:46.006Z,14.50
2023-04-25T21:21:14.249Z,14.60
2023-04-25T21:23:43.873Z,14.50
2023-04-25T21:26:12.166Z,14.50
2023-04-25T21:28:40.400Z,14.50
2023-04-25T21:31:08.886Z,14.50
2023-04-25T21:33:38.556Z,14.50
2023-04-25T21:36:07.867Z,14.50
2023-04-25T21:38:36.429Z,14.40
2023-04-25T21:41:05.379Z,14.40
2023-04-25T21:43:33.656Z,14.40
2023-04-25T21:48:32.998Z,14.30
2023-04-25T21:51:02.663Z,14.30
2023-04-25T21:53:31.549Z,14.30
2023-04-25T21:55:59.783Z,14.30
2023-04-25T21:58:28.031Z,14.30
2023-04-25T22:00:56.658Z,14.20
2023-04-25T22:03:24.978Z,14.20
2023-04-25T22:05:53.370Z,14.20
2023-04-25T22:08:23.178Z,14.30
2023-04-25T22:10:51.450Z,14.40
2023-04-25T22:13:20.293Z,14.20
2023-04-25T22:15:48.751Z,14.20
2023-04-25T22:18:17.289Z,14.20
2023-04-25T22:20:45.520Z,14.20
2023-04-25T22:23:14.228Z,14.20
2023-04-25T22:25:43.807Z,14.10
2023-04-25T22:28:13.036Z,14.10
2023-04-25T22:30:41.302Z,14.10
2023-04-25T22:33:09.663Z,14.10
2023-04-25T22:35:37.967Z,14.10
2023-04-25T22:38:06.454Z,14.00
2023-04-25T22:40:35.357Z,14.00
2023-04-25T22:43:05.353Z,14.00
2023-04-25T22:45:35.685Z,14.00
2023-04-25T22:48:04.075Z,13.90
2023-04-25T22:50:33.095Z,13.90
2023-04-25T22:53:01.661Z,13.90
2023-04-25T22:55:29.893Z,13.90
2023-04-25T22:57:58.166Z,13.90
2023-04-25T23:00:30.350Z,13.90
2023-04-25T23:02:59.388Z,13.90
2023-04-25T23:05:28.281Z,13.80
2023-04-25T23:07:57.713Z,13.90
2023-04-25T23:10:25.949Z,13.90
2023-04-25T23:12:54.871Z,13.80
2023-04-25T23:15:23.137Z,13.80
2023-04-25T23:17:52.764Z,13.80
2023-04-25T23:20:21.105Z,13.80
2023-04-25T23:22:49.692Z,13.80
2023-04-25T23:25:19.053Z,13.80
2023-04-25T23:27:47.598Z,13.80
2023-04-25T23:30:16.968Z,13.70
2023-04-25T23:32:45.978Z,13.70
2023-04-25T23:35:15.736Z,13.70
2023-04-25T23:37:44.002Z,13.70
2023-04-25T23:40:13.265Z,13.70
2023-04-25T23:42:43.097Z,13.70
2023-04-25T23:45:11.712Z,13.60
2023-04-25T23:47:39.984Z,13.60
2023-04-25T23:50:09.883Z,13.70
2023-04-25T23:52:39.675Z,13.60
2023-04-25T23:55:09.783Z,13.50
2023-04-25T23:57:38.085Z,13.60
